createdAt,value
2023-10-23T00:04:01.436Z,99760.20
2023-10-23T00:09:11.272Z,99765.60
2023-10-23T00:14:21.276Z,99769.20
2023-10-23T00:19:31.065Z,99772.60
2023-10-23T00:24:41.027Z,99772.60
2023-10-23T00:29:50.872Z,99778.20
2023-10-23T00:35:00.844Z,99778.60
2023-10-23T00:40:13.057Z,99780.80
2023-10-23T00:45:23.187Z,99786.80
2023-10-23T00:50:33.099Z,99794.20
2023-10-23T00:55:44.039Z,99800.60
2023-10-23T01:00:55.442Z,99811.40
2023-10-23T01:06:05.749Z,99809.60
2023-10-23T01:11:15.911Z,99817.20
2023-10-23T01:16:26.087Z,99810.20
2023-10-23T01:21:35.817Z,99801.80
2023-10-23T01:26:45.533Z,99809.00
2023-10-23T01:31:55.269Z,99825.80
2023-10-23T01:37:05.112Z,99837.80
2023-10-23T01:42:14.951Z,99837.80
2023-10-23T01:47:24.631Z,99843.40
2023-10-23T01:52:34.394Z,99842.20
2023-10-23T01:57:44.109Z,99844.20
2023-10-23T02:02:53.890Z,99851.60
2023-10-23T02:08:03.907Z,99862.00
2023-10-23T02:13:13.524Z,99857.20
2023-10-23T02:18:23.603Z,99860.20
2023-10-23T02:23:48.829Z,99871.80
2023-10-23T02:29:03.263Z,99868.00
2023-10-23T02:34:13.229Z,99867.40
2023-10-23T02:39:23.104Z,99874.80
2023-10-23T02:44:32.770Z,99880.80
2023-10-23T02:49:42.305Z,99876.40
2023-10-23T02:54:53.589Z,99876.80
2023-10-23T03:00:06.962Z,99881.40
2023-10-23T03:05:16.763Z,99890.40
2023-10-23T03:10:26.398Z,99892.20
2023-10-23T03:15:37.409Z,99901.40
2023-10-23T03:20:47.232Z,99903.80
2023-10-23T03:25:57.854Z,99892.80
2023-10-23T03:31:08.182Z,99902.00
2023-10-23T03:36:18.648Z,99900.40
2023-10-23T03:41:28.468Z,99905.80
2023-10-23T03:46:38.616Z,99906.60
2023-10-23T03:51:48.434Z,99909.00
2023-10-23T03:56:58.419Z,99910.80
2023-10-23T04:02:08.653Z,99912.00
2023-10-23T04:07:18.288Z,99904.40
2023-10-23T04:12:28.012Z,99903.60
2023-10-23T04:17:37.841Z,99900.20
2023-10-23T04:22:47.801Z,99903.20
2023-10-23T04:27:58.238Z,99913.80
2023-10-23T04:33:08.133Z,99917.80
2023-10-23T04:38:18.101Z,99925.00
2023-10-23T04:43:28.336Z,99931.20
2023-10-23T04:48:38.072Z,99935.00
2023-10-23T04:53:48.010Z,99934.40
2023-10-23T04:58:58.652Z,99935.40
2023-10-23T05:04:09.147Z,99936.40
2023-10-23T05:09:19.016Z,99941.80
2023-10-23T05:14:30.422Z,99958.20
2023-10-23T05:19:40.657Z,99964.40
2023-10-23T05:24:52.436Z,99968.20
2023-10-23T05:30:02.847Z,99976.40
2023-10-23T05:35:15.910Z,99984.40
2023-10-23T05:40:25.971Z,99992.80
2023-10-23T05:45:38.721Z,100015.80
2023-10-23T05:50:50.966Z,100018.80
2023-10-23T05:56:05.304Z,100016.60
2023-10-23T06:01:15.845Z,100027.40
2023-10-23T06:06:25.767Z,100032.80
2023-10-23T06:11:35.482Z,100036.60
2023-10-23T06:16:45.520Z,100033.40
2023-10-23T06:21:55.292Z,100054.60
2023-10-23T06:27:05.336Z,100061.20
2023-10-23T06:32:17.229Z,100075.60
2023-10-23T06:37:27.254Z,100079.80
2023-10-23T06:42:37.133Z,100088.00
2023-10-23T06:47:49.732Z,100085.80
2023-10-23T06:53:00.137Z,100082.40
2023-10-23T06:58:09.929Z,100083.40
2023-10-23T07:03:20.111Z,100084.00
2023-10-23T07:08:31.074Z,100090.60
2023-10-23T07:13:40.961Z,100090.00
2023-10-23T07:18:51.193Z,100102.60
2023-10-23T07:24:01.162Z,100099.40
2023-10-23T07:29:10.984Z,100124.60
2023-10-23T07:34:21.120Z,100121.80
2023-10-23T07:39:31.842Z,100122.60
2023-10-23T07:44:42.593Z,100122.60
2023-10-23T07:49:52.494Z,100125.00
2023-10-23T07:55:02.494Z,100133.00
2023-10-23T08:00:15.910Z,100128.60
2023-10-23T08:05:25.785Z,100118.40
2023-10-23T08:10:35.708Z,100118.80
2023-10-23T08:15:45.872Z,100125.20
2023-10-23T08:20:55.721Z,100133.00
2023-10-23T08:26:06.158Z,100143.00
2023-10-23T08:31:34.103Z,100142.80
2023-10-23T08:36:47.659Z,100141.00
2023-10-23T08:41:58.506Z,100144.60
2023-10-23T08:47:09.182Z,100151.80
2023-10-23T08:52:22.549Z,100140.00
2023-10-23T08:57:35.291Z,100153.40
2023-10-23T09:02:52.430Z,100158.40
2023-10-23T09:08:02.813Z,100160.80
2023-10-23T09:13:12.446Z,100158.40
2023-10-23T09:18:22.269Z,100155.40
2023-10-23T09:23:32.278Z,100154.00
2023-10-23T09:28:41.879Z,100167.80
2023-10-23T09:33:53.627Z,100164.80
2023-10-23T09:39:04.365Z,100175.20
2023-10-23T09:44:15.068Z,100176.00
2023-10-23T09:49:25.816Z,100169.40
2023-10-23T09:54:40.120Z,100175.80
2023-10-23T09:59:58.440Z,100166.40
2023-10-23T10:05:10.694Z,100166.20
2023-10-23T10:10:22.415Z,100161.60
2023-10-23T10:15:34.064Z,100159.80
2023-10-23T10:20:45.696Z,100158.20
2023-10-23T10:25:57.219Z,100158.00
2023-10-23T10:31:07.340Z,100154.20
2023-10-23T10:36:45.635Z,100156.60
2023-10-23T10:41:54.186Z,100161.00
2023-10-23T10:47:03.969Z,100156.00
2023-10-23T10:52:32.100Z,100156.60
2023-10-23T10:57:44.721Z,100155.00
2023-10-23T11:02:57.142Z,100167.60
2023-10-23T11:08:07.679Z,100172.60
2023-10-23T11:13:20.739Z,100178.80
2023-10-23T11:18:31.953Z,100168.80
2023-10-23T11:23:41.514Z,100165.00
2023-10-23T11:28:51.330Z,100170.60
2023-10-23T11:34:11.014Z,100175.80
2023-10-23T11:39:24.209Z,100180.60
2023-10-23T11:44:35.194Z,100172.60
2023-10-23T11:49:52.533Z,100178.80
2023-10-23T11:55:02.274Z,100171.80
2023-10-23T12:00:16.391Z,100181.40
2023-10-23T12:05:27.360Z,100178.40
2023-10-23T12:10:39.672Z,100186.20
2023-10-23T12:15:49.608Z,100181.60
2023-10-23T12:20:59.961Z,100189.20
2023-10-23T12:26:10.534Z,100191.60
2023-10-23T12:31:22.826Z,100195.00
2023-10-23T12:36:34.921Z,100195.20
2023-10-23T12:41:45.508Z,100193.80
2023-10-23T12:46:55.423Z,100192.60
2023-10-23T12:52:06.502Z,100198.60
2023-10-23T12:57:16.866Z,100195.20
2023-10-23T13:02:27.267Z,100195.40
2023-10-23T13:07:37.392Z,100200.60
2023-10-23T13:12:47.154Z,100194.60
2023-10-23T13:17:57.675Z,100194.40
2023-10-23T13:23:07.417Z,100196.20
2023-10-23T13:28:16.894Z,100190.40
2023-10-23T13:33:26.837Z,100187.60
2023-10-23T13:38:36.834Z,100195.20
2023-10-23T13:43:46.688Z,100193.80
2023-10-23T13:48:56.424Z,100206.80
2023-10-23T13:54:06.386Z,100202.20
2023-10-23T13:59:16.188Z,100205.40
2023-10-23T14:04:25.803Z,100211.00
2023-10-23T14:09:43.590Z,100199.20
2023-10-23T14:14:55.298Z,100192.60
2023-10-23T14:20:05.418Z,100197.60
2023-10-23T14:25:16.302Z,100202.80
2023-10-23T14:30:26.020Z,100200.80
2023-10-23T14:35:37.701Z,100200.20
2023-10-23T14:40:56.394Z,100205.20
2023-10-23T14:46:07.234Z,100200.60
2023-10-23T14:51:16.992Z,100202.20
2023-10-23T14:56:26.879Z,100201.60
2023-10-23T15:01:36.844Z,100195.20
2023-10-23T15:06:46.795Z,100195.40
2023-10-23T15:11:56.796Z,100192.00
2023-10-23T15:17:06.578Z,100185.80
2023-10-23T15:22:16.678Z,100183.00
2023-10-23T15:27:26.351Z,100181.80
2023-10-23T15:32:36.800Z,100182.40
2023-10-23T15:37:46.626Z,100167.60
2023-10-23T15:42:56.523Z,100171.80
2023-10-23T15:48:06.750Z,100163.20
2023-10-23T15:53:17.708Z,100171.60
2023-10-23T15:58:28.377Z,100169.20
2023-10-23T16:03:39.996Z,100167.20
2023-10-23T16:08:49.825Z,100180.60
2023-10-23T16:13:59.707Z,100177.00
2023-10-23T16:19:10.130Z,100177.60
2023-10-23T16:24:19.913Z,100192.20
2023-10-23T16:29:29.435Z,100179.20
2023-10-23T16:34:39.366Z,100181.80
2023-10-23T16:39:49.274Z,100184.60
2023-10-23T16:44:59.455Z,100186.20
2023-10-23T16:50:12.579Z,100185.00
2023-10-23T16:55:22.938Z,100184.00
2023-10-23T17:00:32.712Z,100190.00
2023-10-23T17:05:42.789Z,100190.00
2023-10-23T17:10:52.438Z,100190.40
2023-10-23T17:16:02.526Z,100191.40
2023-10-23T17:21:12.345Z,100194.60
2023-10-23T17:26:22.532Z,100189.60
2023-10-23T17:31:32.349Z,100181.80
2023-10-23T17:36:42.225Z,100177.80
2023-10-23T17:41:52.134Z,100173.80
2023-10-23T17:47:02.298Z,100174.00
2023-10-23T17:52:12.536Z,100174.00
2023-10-23T17:57:22.279Z,100176.20
2023-10-23T18:02:32.581Z,100179.40
2023-10-23T18:07:42.110Z,100178.20
2023-10-23T18:12:53.116Z,100177.60
2023-10-23T18:18:02.921Z,100176.80
2023-10-23T18:23:12.836Z,100174.60
2023-10-23T18:28:22.561Z,100176.60
2023-10-23T18:33:32.647Z,100175.60
2023-10-23T18:38:42.755Z,100163.00
2023-10-23T18:43:53.564Z,100162.80
2023-10-23T18:49:03.671Z,100176.60
2023-10-23T18:54:16.064Z,100171.00
2023-10-23T18:59:25.806Z,100172.20
2023-10-23T19:04:35.780Z,100173.40
2023-10-23T19:09:45.676Z,100176.80
2023-10-23T19:14:56.101Z,100173.80
2023-10-23T19:20:06.763Z,100178.60
2023-10-23T19:25:18.433Z,100177.00
2023-10-23T19:30:28.570Z,100174.40
2023-10-23T19:35:40.281Z,100176.40
2023-10-23T19:40:53.392Z,100176.00
2023-10-23T19:46:05.208Z,100179.20
2023-10-23T19:51:19.671Z,100180.00
2023-10-23T19:56:33.148Z,100175.80
2023-10-23T20:01:43.380Z,100184.00
2023-10-23T20:06:53.263Z,100181.20
2023-10-23T20:12:03.152Z,100182.80
2023-10-23T20:17:13.101Z,100190.40
2023-10-23T20:22:22.888Z,100186.00
2023-10-23T20:27:32.506Z,100178.00
2023-10-23T20:32:42.627Z,100170.00
2023-10-23T20:37:54.106Z,100167.60
2023-10-23T20:43:04.866Z,100170.20
2023-10-23T20:48:15.699Z,100164.40
2023-10-23T20:53:25.599Z,100162.00
2023-10-23T20:58:35.296Z,100154.60
2023-10-23T21:03:44.940Z,100156.20
2023-10-23T21:08:55.763Z,100148.40
2023-10-23T21:14:05.583Z,100140.40
2023-10-23T21:19:15.448Z,100147.60
2023-10-23T21:24:25.307Z,100146.80
2023-10-23T21:29:35.232Z,100145.40
2023-10-23T21:34:44.836Z,100144.40
2023-10-23T21:39:54.731Z,100148.40
2023-10-23T21:45:04.834Z,100148.00
2023-10-23T21:50:15.200Z,100149.40
2023-10-23T21:55:27.214Z,100142.20
2023-10-23T22:00:38.541Z,100138.60
2023-10-23T22:05:51.836Z,100136.80
2023-10-23T22:11:03.331Z,100129.40
2023-10-23T22:16:13.260Z,100124.00
2023-10-23T22:21:23.045Z,100143.40
2023-10-23T22:26:34.146Z,100138.40
2023-10-23T22:31:43.834Z,100132.60
2023-10-23T22:37:58.939Z,100133.40
2023-10-23T22:42:23.150Z,100140.40
2023-10-23T22:47:32.799Z,100137.40
2023-10-23T22:52:43.908Z,100133.60
2023-10-23T22:57:59.008Z,100145.00
2023-10-23T23:03:10.476Z,100142.40
2023-10-23T23:08:22.253Z,100140.20
2023-10-23T23:13:33.699Z,100144.00
2023-10-23T23:18:44.782Z,100151.60
2023-10-23T23:23:54.352Z,100154.60
2023-10-23T23:29:03.892Z,100150.60
2023-10-23T23:34:13.532Z,100142.60
2023-10-23T23:39:24.207Z,100142.80
2023-10-23T23:44:33.796Z,100147.80
2023-10-23T23:49:43.709Z,100143.80
2023-10-23T23:54:53.503Z,100135.00
